sensor_id;sensor_type;location;lat;lon;timestamp;temperature;humidity
2447;DHT22;26430;48.818;9.244;2023-03-30T00:00:54;15.70;99.90
2447;DHT22;26430;48.818;9.244;2023-03-30T00:03:20;15.60;99.90
2447;DHT22;26430;48.818;9.244;2023-03-30T00:05:48;15.60;99.90
2447;DHT22;26430;48.818;9.244;2023-03-30T00:08:16;15.70;99.90
2447;DHT22;26430;48.818;9.244;2023-03-30T00:10:45;15.70;99.90
2447;DHT22;26430;48.818;9.244;2023-03-30T00:13:12;15.70;99.90
2447;DHT22;26430;48.818;9.244;2023-03-30T00:15:39;15.70;99.90
2447;DHT22;26430;48.818;9.244;2023-03-30T00:18:05;15.70;99.90
2447;DHT22;26430;48.818;9.244;2023-03-30T00:20:31;15.70;99.90
2447;DHT22;26430;48.818;9.244;2023-03-30T00:22:57;15.70;99.90
2447;DHT22;26430;48.818;9.244;2023-03-30T00:25:23;15.70;99.90
2447;DHT22;26430;48.818;9.244;2023-03-30T00:27:49;15.80;99.90
2447;DHT22;26430;48.818;9.244;2023-03-30T00:30:16;15.80;99.90
2447;DHT22;26430;48.818;9.244;2023-03-30T00:32:43;15.70;99.90
2447;DHT22;26430;48.818;9.244;2023-03-30T00:35:09;15.80;99.90
2447;DHT22;26430;48.818;9.244;2023-03-30T00:37:36;15.90;99.90
2447;DHT22;26430;48.818;9.244;2023-03-30T00:40:03;15.90;99.90
2447;DHT22;26430;48.818;9.244;2023-03-30T00:42:33;15.90;99.90
2447;DHT22;26430;48.818;9.244;2023-03-30T00:45:35;15.90;99.90
2447;DHT22;26430;48.818;9.244;2023-03-30T00:48:06;15.90;99.90
2447;DHT22;26430;48.818;9.244;2023-03-30T00:50:45;16.00;99.90
2447;DHT22;26430;48.818;9.244;2023-03-30T00:53:26;15.90;99.90
2447;DHT22;26430;48.818;9.244;2023-03-30T00:55:53;15.80;99.90
2447;DHT22;26430;48.818;9.244;2023-03-30T00:58:21;15.90;99.90
2447;DHT22;26430;48.818;9.244;2023-03-30T01:00:48;15.80;99.90
2447;DHT22;26430;48.818;9.244;2023-03-30T01:03:29;15.80;99.90
2447;DHT22;26430;48.818;9.244;2023-03-30T01:05:57;15.80;99.90
2447;DHT22;26430;48.818;9.244;2023-03-30T01:08:24;15.80;99.90
2447;DHT22;26430;48.818;9.244;2023-03-30T01:10:52;15.80;99.90
2447;DHT22;26430;48.818;9.244;2023-03-30T01:13:19;15.70;99.90
2447;DHT22;26430;48.818;9.244;2023-03-30T01:16:15;15.70;99.90
2447;DHT22;26430;48.818;9.244;2023-03-30T01:28:03;15.40;99.90
2447;DHT22;26430;48.818;9.244;2023-03-30T01:46:49;15.20;99.90
2447;DHT22;26430;48.818;9.244;2023-03-30T01:49:36;15.10;99.90
2447;DHT22;26430;48.818;9.244;2023-03-30T01:54:45;15.10;99.90
2447;DHT22;26430;48.818;9.244;2023-03-30T01:57:15;15.10;99.90
2447;DHT22;26430;48.818;9.244;2023-03-30T01:59:59;15.10;99.90
2447;DHT22;26430;48.818;9.244;2023-03-30T02:02:29;15.10;99.90
2447;DHT22;26430;48.818;9.244;2023-03-30T02:04:56;15.00;99.90
2447;DHT22;26430;48.818;9.244;2023-03-30T02:07:27;14.90;99.90
2447;DHT22;26430;48.818;9.244;2023-03-30T02:09:56;14.90;99.90
2447;DHT22;26430;48.818;9.244;2023-03-30T02:12:24;15.00;99.90
2447;DHT22;26430;48.818;9.244;2023-03-30T02:14:57;15.00;99.90
2447;DHT22;26430;48.818;9.244;2023-03-30T02:17:28;14.90;99.90
2447;DHT22;26430;48.818;9.244;2023-03-30T02:19:54;14.90;99.90
2447;DHT22;26430;48.818;9.244;2023-03-30T02:22:23;14.90;99.90
2447;DHT22;26430;48.818;9.244;2023-03-30T02:24:53;14.90;99.90
2447;DHT22;26430;48.818;9.244;2023-03-30T02:27:22;15.00;99.90
2447;DHT22;26430;48.818;9.244;2023-03-30T02:29:48;15.00;99.90
2447;DHT22;26430;48.818;9.244;2023-03-30T02:32:52;15.00;99.90
2447;DHT22;26430;48.818;9.244;2023-03-30T02:54:28;14.80;99.90
2447;DHT22;26430;48.818;9.244;2023-03-30T02:57:07;14.80;99.90
2447;DHT22;26430;48.818;9.244;2023-03-30T02:59:49;14.70;99.90
2447;DHT22;26430;48.818;9.244;2023-03-30T03:02:22;14.50;99.90
2447;DHT22;26430;48.818;9.244;2023-03-30T03:04:50;14.40;99.90
2447;DHT22;26430;48.818;9.244;2023-03-30T03:07:18;14.20;99.90
2447;DHT22;26430;48.818;9.244;2023-03-30T03:09:45;14.10;99.90
2447;DHT22;26430;48.818;9.244;2023-03-30T03:12:11;14.20;99.90
2447;DHT22;26430;48.818;9.244;2023-03-30T03:14:37;14.10;99.90
2447;DHT22;26430;48.818;9.244;2023-03-30T03:17:03;13.90;99.90
2447;DHT22;26430;48.818;9.244;2023-03-30T03:19:29;13.70;99.90
2447;DHT22;26430;48.818;9.244;2023-03-30T03:21:55;13.60;99.90
2447;DHT22;26430;48.818;9.244;2023-03-30T03:24:20;13.50;99.90
2447;DHT22;26430;48.818;9.244;2023-03-30T03:26:46;13.50;99.90
2447;DHT22;26430;48.818;9.244;2023-03-30T03:29:12;13.50;99.90
2447;DHT22;26430;48.818;9.244;2023-03-30T03:31:38;13.40;99.90
2447;DHT22;26430;48.818;9.244;2023-03-30T03:34:03;13.40;99.90
2447;DHT22;26430;48.818;9.244;2023-03-30T03:36:29;13.40;99.90
2447;DHT22;26430;48.818;9.244;2023-03-30T03:38:55;13.40;99.90
2447;DHT22;26430;48.818;9.244;2023-03-30T03:41:21;13.40;99.90
2447;DHT22;26430;48.818;9.244;2023-03-30T03:43:47;13.40;99.90
2447;DHT22;26430;48.818;9.244;2023-03-30T03:46:13;13.30;99.90
2447;DHT22;26430;48.818;9.244;2023-03-30T03:48:39;13.30;99.90
2447;DHT22;26430;48.818;9.244;2023-03-30T03:51:05;13.30;99.90
2447;DHT22;26430;48.818;9.244;2023-03-30T03:53:31;13.30;99.90
2447;DHT22;26430;48.818;9.244;2023-03-30T03:55:57;13.30;99.90
2447;DHT22;26430;48.818;9.244;2023-03-30T03:58:24;13.30;99.90
2447;DHT22;26430;48.818;9.244;2023-03-30T04:00:50;13.40;99.90
2447;DHT22;26430;48.818;9.244;2023-03-30T04:03:17;13.40;99.90
2447;DHT22;26430;48.818;9.244;2023-03-30T04:05:43;13.30;99.90
2447;DHT22;26430;48.818;9.244;2023-03-30T04:08:09;13.40;99.90
2447;DHT22;26430;48.818;9.244;2023-03-30T04:10:40;13.40;99.90
2447;DHT22;26430;48.818;9.244;2023-03-30T04:13:05;13.40;99.90
2447;DHT22;26430;48.818;9.244;2023-03-30T04:15:32;13.40;99.90
2447;DHT22;26430;48.818;9.244;2023-03-30T04:17:57;13.40;99.90
2447;DHT22;26430;48.818;9.244;2023-03-30T04:20:27;13.40;99.90
2447;DHT22;26430;48.818;9.244;2023-03-30T04:22:53;13.40;99.90
2447;DHT22;26430;48.818;9.244;2023-03-30T04:25:23;13.30;99.90
2447;DHT22;26430;48.818;9.244;2023-03-30T04:27:53;13.30;99.90
2447;DHT22;26430;48.818;9.244;2023-03-30T04:30:19;13.20;99.90
2447;DHT22;26430;48.818;9.244;2023-03-30T04:32:47;13.20;99.90
2447;DHT22;26430;48.818;9.244;2023-03-30T04:35:27;13.30;99.90
2447;DHT22;26430;48.818;9.244;2023-03-30T04:37:53;13.20;99.90
2447;DHT22;26430;48.818;9.244;2023-03-30T04:40:18;13.20;99.90
2447;DHT22;26430;48.818;9.244;2023-03-30T04:42:44;13.20;99.90
2447;DHT22;26430;48.818;9.244;2023-03-30T04:45:14;13.30;99.90
2447;DHT22;26430;48.818;9.244;2023-03-30T04:47:41;13.30;99.90
2447;DHT22;26430;48.818;9.244;2023-03-30T04:50:07;13.30;99.90
2447;DHT22;26430;48.818;9.244;2023-03-30T04:52:33;13.40;99.90
2447;DHT22;26430;48.818;9.244;2023-03-30T04:54:59;13.40;99.90
2447;DHT22;26430;48.818;9.244;2023-03-30T04:57:24;13.40;99.90
2447;DHT22;26430;48.818;9.244;2023-03-30T04:59:50;13.40;99.90
2447;DHT22;26430;48.818;9.244;2023-03-30T05:02:16;13.30;99.90
2447;DHT22;26430;48.818;9.244;2023-03-30T05:04:42;13.40;99.90
2447;DHT22;26430;48.818;9.244;2023-03-30T05:07:07;13.30;99.90
2447;DHT22;26430;48.818;9.244;2023-03-30T05:09:34;13.40;99.90
2447;DHT22;26430;48.818;9.244;2023-03-30T05:12:00;13.40;99.90
2447;DHT22;26430;48.818;9.244;2023-03-30T05:14:25;13.40;99.90
2447;DHT22;26430;48.818;9.244;2023-03-30T05:16:51;13.30;99.90
2447;DHT22;26430;48.818;9.244;2023-03-30T05:19:17;13.30;99.90
2447;DHT22;26430;48.818;9.244;2023-03-30T05:21:43;13.30;99.90
2447;DHT22;26430;48.818;9.244;2023-03-30T05:24:11;13.20;99.90
2447;DHT22;26430;48.818;9.244;2023-03-30T05:26:37;13.20;99.90
2447;DHT22;26430;48.818;9.244;2023-03-30T05:29:02;13.20;99.90
2447;DHT22;26430;48.818;9.244;2023-03-30T05:31:28;13.20;99.90
2447;DHT22;26430;48.818;9.244;2023-03-30T05:33:54;13.20;99.90
2447;DHT22;26430;48.818;9.244;2023-03-30T05:36:20;13.20;99.90
2447;DHT22;26430;48.818;9.244;2023-03-30T05:38:45;13.20;99.90
2447;DHT22;26430;48.818;9.244;2023-03-30T05:41:11;13.20;99.90
2447;DHT22;26430;48.818;9.244;2023-03-30T05:43:36;13.20;99.90
2447;DHT22;26430;48.818;9.244;2023-03-30T05:46:02;13.20;99.90
2447;DHT22;26430;48.818;9.244;2023-03-30T05:48:30;13.30;99.90
2447;DHT22;26430;48.818;9.244;2023-03-30T05:50:56;13.30;99.90
2447;DHT22;26430;48.818;9.244;2023-03-30T05:53:22;13.20;99.90
2447;DHT22;26430;48.818;9.244;2023-03-30T05:55:48;13.30;99.90
2447;DHT22;26430;48.818;9.244;2023-03-30T05:58:15;13.30;99.90
2447;DHT22;26430;48.818;9.244;2023-03-30T06:00:42;13.30;99.90
2447;DHT22;26430;48.818;9.244;2023-03-30T06:03:09;13.30;99.90
2447;DHT22;26430;48.818;9.244;2023-03-30T06:05:37;13.20;99.90
2447;DHT22;26430;48.818;9.244;2023-03-30T06:08:08;13.20;99.90
2447;DHT22;26430;48.818;9.244;2023-03-30T06:10:34;13.20;99.90
2447;DHT22;26430;48.818;9.244;2023-03-30T06:13:00;13.10;99.90
2447;DHT22;26430;48.818;9.244;2023-03-30T06:15:26;13.20;99.90
2447;DHT22;26430;48.818;9.244;2023-03-30T06:17:52;13.20;99.90
2447;DHT22;26430;48.818;9.244;2023-03-30T06:20:18;13.20;99.90
2447;DHT22;26430;48.818;9.244;2023-03-30T06:22:46;13.20;99.90
2447;DHT22;26430;48.818;9.244;2023-03-30T06:25:13;13.10;99.90
2447;DHT22;26430;48.818;9.244;2023-03-30T06:27:39;13.20;99.90
2447;DHT22;26430;48.818;9.244;2023-03-30T06:30:06;13.30;99.90
2447;DHT22;26430;48.818;9.244;2023-03-30T06:32:33;13.30;99.90
2447;DHT22;26430;48.818;9.244;2023-03-30T06:34:59;13.30;99.90
2447;DHT22;26430;48.818;9.244;2023-03-30T06:37:25;13.30;99.90
2447;DHT22;26430;48.818;9.244;2023-03-30T06:39:50;13.40;99.90
2447;DHT22;26430;48.818;9.244;2023-03-30T06:42:16;13.40;99.90
2447;DHT22;26430;48.818;9.244;2023-03-30T06:44:42;13.60;99.90
2447;DHT22;26430;48.818;9.244;2023-03-30T06:47:08;13.60;99.90
2447;DHT22;26430;48.818;9.244;2023-03-30T06:49:33;13.70;99.90
2447;DHT22;26430;48.818;9.244;2023-03-30T06:51:59;13.70;99.90
2447;DHT22;26430;48.818;9.244;2023-03-30T06:54:26;13.60;99.90
2447;DHT22;26430;48.818;9.244;2023-03-30T06:56:51;13.60;99.90
2447;DHT22;26430;48.818;9.244;2023-03-30T06:59:17;13.70;99.90
2447;DHT22;26430;48.818;9.244;2023-03-30T07:01:43;13.70;99.90
2447;DHT22;26430;48.818;9.244;2023-03-30T07:04:08;13.80;99.90
2447;DHT22;26430;48.818;9.244;2023-03-30T07:06:35;13.70;99.90
2447;DHT22;26430;48.818;9.244;2023-03-30T07:09:01;13.80;99.90
2447;DHT22;26430;48.818;9.244;2023-03-30T07:11:30;13.80;99.90
2447;DHT22;26430;48.818;9.244;2023-03-30T07:13:56;13.90;99.90
2447;DHT22;26430;48.818;9.244;2023-03-30T07:16:23;13.80;99.90
2447;DHT22;26430;48.818;9.244;2023-03-30T07:18:49;13.80;99.90
2447;DHT22;26430;48.818;9.244;2023-03-30T07:21:15;13.80;99.90
2447;DHT22;26430;48.818;9.244;2023-03-30T07:23:41;13.70;99.90
2447;DHT22;26430;48.818;9.244;2023-03-30T07:26:07;13.60;99.90
2447;DHT22;26430;48.818;9.244;2023-03-30T07:28:34;13.50;99.90
2447;DHT22;26430;48.818;9.244;2023-03-30T07:31:07;13.20;99.90
2447;DHT22;26430;48.818;9.244;2023-03-30T07:33:33;13.00;99.90
2447;DHT22;26430;48.818;9.244;2023-03-30T07:35:58;13.10;99.90
2447;DHT22;26430;48.818;9.244;2023-03-30T07:38:24;13.00;99.90
2447;DHT22;26430;48.818;9.244;2023-03-30T07:40:50;12.90;99.90
2447;DHT22;26430;48.818;9.244;2023-03-30T07:43:16;12.80;99.90
2447;DHT22;26430;48.818;9.244;2023-03-30T07:45:41;12.80;99.90
2447;DHT22;26430;48.818;9.244;2023-03-30T07:48:07;12.70;99.90
2447;DHT22;26430;48.818;9.244;2023-03-30T07:50:32;12.80;99.90
2447;DHT22;26430;48.818;9.244;2023-03-30T07:52:59;12.70;99.90
2447;DHT22;26430;48.818;9.244;2023-03-30T07:55:25;12.50;99.90
2447;DHT22;26430;48.818;9.244;2023-03-30T07:57:53;12.40;99.90
2447;DHT22;26430;48.818;9.244;2023-03-30T08:00:19;12.50;99.90
2447;DHT22;26430;48.818;9.244;2023-03-30T08:02:46;12.50;99.90
2447;DHT22;26430;48.818;9.244;2023-03-30T08:05:12;12.60;99.90
2447;DHT22;26430;48.818;9.244;2023-03-30T08:07:37;12.60;99.90
2447;DHT22;26430;48.818;9.244;2023-03-30T08:10:03;12.60;99.90
2447;DHT22;26430;48.818;9.244;2023-03-30T08:12:29;12.80;99.90
2447;DHT22;26430;48.818;9.244;2023-03-30T08:14:55;12.70;99.90
2447;DHT22;26430;48.818;9.244;2023-03-30T08:17:21;12.80;99.90
2447;DHT22;26430;48.818;9.244;2023-03-30T08:19:46;12.70;99.90
2447;DHT22;26430;48.818;9.244;2023-03-30T08:22:12;12.60;99.90
2447;DHT22;26430;48.818;9.244;2023-03-30T08:24:38;12.60;99.90
2447;DHT22;26430;48.818;9.244;2023-03-30T08:27:03;12.50;99.90
2447;DHT22;26430;48.818;9.244;2023-03-30T08:29:29;12.40;99.90
2447;DHT22;26430;48.818;9.244;2023-03-30T08:31:56;12.40;99.90
2447;DHT22;26430;48.818;9.244;2023-03-30T08:34:22;12.40;99.90
2447;DHT22;26430;48.818;9.244;2023-03-30T08:36:47;12.50;99.90
2447;DHT22;26430;48.818;9.244;2023-03-30T08:39:13;12.40;99.90
2447;DHT22;26430;48.818;9.244;2023-03-30T08:44:40;12.70;99.90
2447;DHT22;26430;48.818;9.244;2023-03-30T08:47:21;12.70;99.90
2447;DHT22;26430;48.818;9.244;2023-03-30T08:50:14;12.60;99.90
2447;DHT22;26430;48.818;9.244;2023-03-30T08:52:40;12.50;99.90
2447;DHT22;26430;48.818;9.244;2023-03-30T08:55:22;12.30;99.90
2447;DHT22;26430;48.818;9.244;2023-03-30T09:00:30;12.20;99.90
2447;DHT22;26430;48.818;9.244;2023-03-30T09:03:10;12.10;99.90
2447;DHT22;26430;48.818;9.244;2023-03-30T09:05:51;12.10;99.90
2447;DHT22;26430;48.818;9.244;2023-03-30T09:08:22;12.00;99.90
2447;DHT22;26430;48.818;9.244;2023-03-30T09:11:00;12.00;99.90
2447;DHT22;26430;48.818;9.244;2023-03-30T09:13:34;12.00;99.90
2447;DHT22;26430;48.818;9.244;2023-03-30T09:16:16;12.00;99.90
2447;DHT22;26430;48.818;9.244;2023-03-30T09:18:46;12.00;99.90
2447;DHT22;26430;48.818;9.244;2023-03-30T09:21:14;12.00;99.90
2447;DHT22;26430;48.818;9.244;2023-03-30T09:23:40;12.00;99.90
2447;DHT22;26430;48.818;9.244;2023-03-30T09:29:09;12.10;99.90
2447;DHT22;26430;48.818;9.244;2023-03-30T09:31:38;12.20;99.90
2447;DHT22;26430;48.818;9.244;2023-03-30T09:34:23;12.20;99.90
2447;DHT22;26430;48.818;9.244;2023-03-30T09:36:52;12.30;99.90
2447;DHT22;26430;48.818;9.244;2023-03-30T09:39:22;12.30;99.90
2447;DHT22;26430;48.818;9.244;2023-03-30T09:47:32;12.60;99.90
2447;DHT22;26430;48.818;9.244;2023-03-30T09:50:10;12.70;99.90
2447;DHT22;26430;48.818;9.244;2023-03-30T09:52:39;13.00;99.90
2447;DHT22;26430;48.818;9.244;2023-03-30T09:57:47;12.90;99.90
2447;DHT22;26430;48.818;9.244;2023-03-30T10:00:32;12.80;99.90
2447;DHT22;26430;48.818;9.244;2023-03-30T10:03:04;12.90;99.90
2447;DHT22;26430;48.818;9.244;2023-03-30T10:05:33;13.00;99.90
2447;DHT22;26430;48.818;9.244;2023-03-30T10:08:02;13.00;99.90
2447;DHT22;26430;48.818;9.244;2023-03-30T10:10:35;13.00;99.90
2447;DHT22;26430;48.818;9.244;2023-03-30T10:13:30;13.00;99.90
2447;DHT22;26430;48.818;9.244;2023-03-30T10:16:02;13.10;99.90
2447;DHT22;26430;48.818;9.244;2023-03-30T10:18:40;13.20;99.90
2447;DHT22;26430;48.818;9.244;2023-03-30T10:21:17;13.40;99.90
2447;DHT22;26430;48.818;9.244;2023-03-30T10:23:46;13.50;99.90
2447;DHT22;26430;48.818;9.244;2023-03-30T10:26:26;13.50;99.90
2447;DHT22;26430;48.818;9.244;2023-03-30T10:29:08;13.60;99.90
2447;DHT22;26430;48.818;9.244;2023-03-30T10:31:37;13.60;99.90
2447;DHT22;26430;48.818;9.244;2023-03-30T10:34:05;13.70;99.90
2447;DHT22;26430;48.818;9.244;2023-03-30T10:36:38;13.70;99.90
2447;DHT22;26430;48.818;9.244;2023-03-30T10:41:35;13.50;99.90
2447;DHT22;26430;48.818;9.244;2023-03-30T10:46:47;13.40;99.90
2447;DHT22;26430;48.818;9.244;2023-03-30T10:55:01;13.50;99.90
2447;DHT22;26430;48.818;9.244;2023-03-30T11:03:25;13.50;99.90
2447;DHT22;26430;48.818;9.244;2023-03-30T11:05:56;13.50;99.90
2447;DHT22;26430;48.818;9.244;2023-03-30T11:08:28;13.60;99.90
2447;DHT22;26430;48.818;9.244;2023-03-30T11:10:56;13.80;99.90
2447;DHT22;26430;48.818;9.244;2023-03-30T11:13:34;13.90;99.90
2447;DHT22;26430;48.818;9.244;2023-03-30T11:16:35;14.00;99.90
2447;DHT22;26430;48.818;9.244;2023-03-30T11:19:11;14.10;99.90
2447;DHT22;26430;48.818;9.244;2023-03-30T11:24:33;14.20;99.90
2447;DHT22;26430;48.818;9.244;2023-03-30T11:27:09;14.50;99.90
2447;DHT22;26430;48.818;9.244;2023-03-30T11:29:47;14.50;99.90
2447;DHT22;26430;48.818;9.244;2023-03-30T11:32:29;14.50;99.90
2447;DHT22;26430;48.818;9.244;2023-03-30T11:36:00;14.50;99.90
2447;DHT22;26430;48.818;9.244;2023-03-30T11:38:20;14.50;99.90
2447;DHT22;26430;48.818;9.244;2023-03-30T11:41:26;14.60;99.90
2447;DHT22;26430;48.818;9.244;2023-03-30T11:43:44;14.70;99.90
2447;DHT22;26430;48.818;9.244;2023-03-30T11:55:18;14.90;99.90
2447;DHT22;26430;48.818;9.244;2023-03-30T12:00:37;14.80;99.90
2447;DHT22;26430;48.818;9.244;2023-03-30T12:03:32;14.90;99.90
2447;DHT22;26430;48.818;9.244;2023-03-30T12:06:14;15.10;99.90
2447;DHT22;26430;48.818;9.244;2023-03-30T12:14:31;15.30;99.90
2447;DHT22;26430;48.818;9.244;2023-03-30T12:17:29;15.40;99.90
2447;DHT22;26430;48.818;9.244;2023-03-30T12:20:44;15.30;99.90
2447;DHT22;26430;48.818;9.244;2023-03-30T12:22:49;15.20;99.90
2447;DHT22;26430;48.818;9.244;2023-03-30T12:25:56;15.10;99.90
2447;DHT22;26430;48.818;9.244;2023-03-30T12:28:17;15.00;99.90
2447;DHT22;26430;48.818;9.244;2023-03-30T12:30:56;15.00;99.90
2447;DHT22;26430;48.818;9.244;2023-03-30T12:33:35;14.90;99.90
2447;DHT22;26430;48.818;9.244;2023-03-30T12:36:24;15.20;99.90
2447;DHT22;26430;48.818;9.244;2023-03-30T12:38:57;15.30;99.90
2447;DHT22;26430;48.818;9.244;2023-03-30T12:41:28;15.60;99.90
2447;DHT22;26430;48.818;9.244;2023-03-30T12:55:12;15.80;99.90
2447;DHT22;26430;48.818;9.244;2023-03-30T13:00:32;16.30;99.90
2447;DHT22;26430;48.818;9.244;2023-03-30T13:05:49;16.20;99.90
2447;DHT22;26430;48.818;9.244;2023-03-30T13:11:22;16.30;99.90
2447;DHT22;26430;48.818;9.244;2023-03-30T13:21:47;16.90;99.90
2447;DHT22;26430;48.818;9.244;2023-03-30T13:29:42;16.60;99.90
2447;DHT22;26430;48.818;9.244;2023-03-30T13:37:58;16.60;99.90
2447;DHT22;26430;48.818;9.244;2023-03-30T13:40:33;16.80;99.90
2447;DHT22;26430;48.818;9.244;2023-03-30T13:48:39;17.10;99.90
2447;DHT22;26430;48.818;9.244;2023-03-30T13:51:14;17.30;99.90
2447;DHT22;26430;48.818;9.244;2023-03-30T13:53:45;17.60;99.90
2447;DHT22;26430;48.818;9.244;2023-03-30T13:56:13;17.70;99.90
2447;DHT22;26430;48.818;9.244;2023-03-30T13:58:43;17.50;99.90
2447;DHT22;26430;48.818;9.244;2023-03-30T14:01:12;17.30;99.90
2447;DHT22;26430;48.818;9.244;2023-03-30T14:03:57;17.10;99.90
2447;DHT22;26430;48.818;9.244;2023-03-30T14:06:30;16.60;99.90
2447;DHT22;26430;48.818;9.244;2023-03-30T14:14:02;16.60;99.90
2447;DHT22;26430;48.818;9.244;2023-03-30T14:16:37;16.70;99.90
2447;DHT22;26430;48.818;9.244;2023-03-30T14:19:22;16.70;99.90
2447;DHT22;26430;48.818;9.244;2023-03-30T14:21:52;16.60;99.90
2447;DHT22;26430;48.818;9.244;2023-03-30T14:24:29;16.50;99.90
2447;DHT22;26430;48.818;9.244;2023-03-30T14:27:14;16.70;99.90
2447;DHT22;26430;48.818;9.244;2023-03-30T14:29:45;16.80;99.90
2447;DHT22;26430;48.818;9.244;2023-03-30T14:32:13;16.50;99.90
2447;DHT22;26430;48.818;9.244;2023-03-30T14:34:45;16.60;99.90
2447;DHT22;26430;48.818;9.244;2023-03-30T14:37:12;16.70;99.90
2447;DHT22;26430;48.818;9.244;2023-03-30T14:40:00;16.70;99.90
2447;DHT22;26430;48.818;9.244;2023-03-30T14:42:30;16.60;99.90
2447;DHT22;26430;48.818;9.244;2023-03-30T14:44:58;16.70;99.90
2447;DHT22;26430;48.818;9.244;2023-03-30T14:47:25;16.90;99.90
2447;DHT22;26430;48.818;9.244;2023-03-30T14:49:54;16.70;99.90
2447;DHT22;26430;48.818;9.244;2023-03-30T14:52:24;16.70;99.90
2447;DHT22;26430;48.818;9.244;2023-03-30T14:54:52;16.60;99.90
2447;DHT22;26430;48.818;9.244;2023-03-30T14:57:21;16.40;99.90
2447;DHT22;26430;48.818;9.244;2023-03-30T14:59:50;16.50;99.90
2447;DHT22;26430;48.818;9.244;2023-03-30T15:02:26;16.50;99.90
2447;DHT22;26430;48.818;9.244;2023-03-30T15:04:53;16.50;99.90
2447;DHT22;26430;48.818;9.244;2023-03-30T15:07:20;16.30;99.90
2447;DHT22;26430;48.818;9.244;2023-03-30T15:09:48;16.40;99.90
2447;DHT22;26430;48.818;9.244;2023-03-30T15:15:02;16.80;99.90
2447;DHT22;26430;48.818;9.244;2023-03-30T15:17:31;17.20;99.90
2447;DHT22;26430;48.818;9.244;2023-03-30T15:19:58;17.50;99.90
2447;DHT22;26430;48.818;9.244;2023-03-30T15:22:32;17.40;99.90
2447;DHT22;26430;48.818;9.244;2023-03-30T15:25:18;17.40;99.90
2447;DHT22;26430;48.818;9.244;2023-03-30T15:28:06;17.40;99.90
2447;DHT22;26430;48.818;9.244;2023-03-30T15:30:38;17.00;99.90
2447;DHT22;26430;48.818;9.244;2023-03-30T15:33:04;16.70;99.90
2447;DHT22;26430;48.818;9.244;2023-03-30T15:35:33;16.60;99.90
2447;DHT22;26430;48.818;9.244;2023-03-30T15:38:45;16.40;99.90
2447;DHT22;26430;48.818;9.244;2023-03-30T15:40:50;16.50;99.90
2447;DHT22;26430;48.818;9.244;2023-03-30T15:43:22;16.40;99.90
2447;DHT22;26430;48.818;9.244;2023-03-30T15:46:15;15.40;99.90
2447;DHT22;26430;48.818;9.244;2023-03-30T15:48:46;15.10;99.90
2447;DHT22;26430;48.818;9.244;2023-03-30T15:57:16;15.30;99.90
2447;DHT22;26430;48.818;9.244;2023-03-30T15:59:48;15.20;99.90
2447;DHT22;26430;48.818;9.244;2023-03-30T16:02:20;15.30;99.90
2447;DHT22;26430;48.818;9.244;2023-03-30T16:04:46;15.40;99.90
2447;DHT22;26430;48.818;9.244;2023-03-30T16:07:21;15.50;99.90
2447;DHT22;26430;48.818;9.244;2023-03-30T16:09:47;15.60;99.90
2447;DHT22;26430;48.818;9.244;2023-03-30T16:12:15;15.60;99.90
2447;DHT22;26430;48.818;9.244;2023-03-30T16:14:41;15.50;99.90
2447;DHT22;26430;48.818;9.244;2023-03-30T16:17:09;15.60;99.90
2447;DHT22;26430;48.818;9.244;2023-03-30T16:19:40;15.60;99.90
2447;DHT22;26430;48.818;9.244;2023-03-30T16:22:07;15.60;99.90
2447;DHT22;26430;48.818;9.244;2023-03-30T16:24:34;15.90;99.90
2447;DHT22;26430;48.818;9.244;2023-03-30T16:27:00;15.60;99.90
2447;DHT22;26430;48.818;9.244;2023-03-30T16:29:26;15.60;99.90
2447;DHT22;26430;48.818;9.244;2023-03-30T16:31:52;15.60;99.90
2447;DHT22;26430;48.818;9.244;2023-03-30T16:34:18;15.70;99.90
2447;DHT22;26430;48.818;9.244;2023-03-30T16:36:44;15.70;99.90
2447;DHT22;26430;48.818;9.244;2023-03-30T16:39:22;15.90;99.90
2447;DHT22;26430;48.818;9.244;2023-03-30T16:41:48;15.80;99.90
2447;DHT22;26430;48.818;9.244;2023-03-30T16:44:14;15.90;99.90
2447;DHT22;26430;48.818;9.244;2023-03-30T16:46:40;16.00;99.90
2447;DHT22;26430;48.818;9.244;2023-03-30T16:49:14;15.70;99.90
2447;DHT22;26430;48.818;9.244;2023-03-30T16:51:41;15.70;99.90
2447;DHT22;26430;48.818;9.244;2023-03-30T16:54:07;15.70;99.90
2447;DHT22;26430;48.818;9.244;2023-03-30T16:56:33;15.70;99.90
2447;DHT22;26430;48.818;9.244;2023-03-30T16:58:58;15.70;99.90
2447;DHT22;26430;48.818;9.244;2023-03-30T17:01:26;15.70;99.90
2447;DHT22;26430;48.818;9.244;2023-03-30T17:03:52;15.70;99.90
2447;DHT22;26430;48.818;9.244;2023-03-30T17:06:17;15.70;99.90
2447;DHT22;26430;48.818;9.244;2023-03-30T17:08:43;15.60;99.90
2447;DHT22;26430;48.818;9.244;2023-03-30T17:11:09;15.20;99.90
2447;DHT22;26430;48.818;9.244;2023-03-30T17:13:35;15.10;99.90
2447;DHT22;26430;48.818;9.244;2023-03-30T17:16:01;14.70;99.90
2447;DHT22;26430;48.818;9.244;2023-03-30T17:18:28;14.70;99.90
2447;DHT22;26430;48.818;9.244;2023-03-30T17:20:56;14.60;99.90
2447;DHT22;26430;48.818;9.244;2023-03-30T17:23:26;14.60;99.90
2447;DHT22;26430;48.818;9.244;2023-03-30T17:25:54;14.40;99.90
2447;DHT22;26430;48.818;9.244;2023-03-30T17:28:28;14.50;99.90
2447;DHT22;26430;48.818;9.244;2023-03-30T17:30:57;14.40;99.90
2447;DHT22;26430;48.818;9.244;2023-03-30T17:33:23;14.30;99.90
2447;DHT22;26430;48.818;9.244;2023-03-30T17:35:52;14.30;99.90
2447;DHT22;26430;48.818;9.244;2023-03-30T17:38:18;14.20;99.90
2447;DHT22;26430;48.818;9.244;2023-03-30T17:40:44;14.20;99.90
2447;DHT22;26430;48.818;9.244;2023-03-30T17:43:11;14.10;99.90
2447;DHT22;26430;48.818;9.244;2023-03-30T17:45:37;14.10;99.90
2447;DHT22;26430;48.818;9.244;2023-03-30T17:48:05;14.10;99.90
2447;DHT22;26430;48.818;9.244;2023-03-30T17:50:34;13.90;99.90
2447;DHT22;26430;48.818;9.244;2023-03-30T17:53:00;13.90;99.90
2447;DHT22;26430;48.818;9.244;2023-03-30T17:55:28;13.90;99.90
2447;DHT22;26430;48.818;9.244;2023-03-30T17:57:54;13.90;99.90
2447;DHT22;26430;48.818;9.244;2023-03-30T18:00:28;13.90;99.90
2447;DHT22;26430;48.818;9.244;2023-03-30T18:02:55;13.90;99.90
2447;DHT22;26430;48.818;9.244;2023-03-30T18:05:23;13.70;99.90
2447;DHT22;26430;48.818;9.244;2023-03-30T18:07:49;13.70;99.90
2447;DHT22;26430;48.818;9.244;2023-03-30T18:10:24;13.80;99.90
2447;DHT22;26430;48.818;9.244;2023-03-30T18:12:50;13.60;99.90
2447;DHT22;26430;48.818;9.244;2023-03-30T18:15:19;13.60;99.90
2447;DHT22;26430;48.818;9.244;2023-03-30T18:17:46;13.60;99.90
2447;DHT22;26430;48.818;9.244;2023-03-30T18:20:39;13.50;99.90
2447;DHT22;26430;48.818;9.244;2023-03-30T18:23:05;13.60;99.90
2447;DHT22;26430;48.818;9.244;2023-03-30T18:25:31;13.70;99.90
2447;DHT22;26430;48.818;9.244;2023-03-30T18:27:57;13.70;99.90
2447;DHT22;26430;48.818;9.244;2023-03-30T18:30:35;13.60;99.90
2447;DHT22;26430;48.818;9.244;2023-03-30T18:33:05;13.60;99.90
2447;DHT22;26430;48.818;9.244;2023-03-30T18:35:32;13.60;99.90
2447;DHT22;26430;48.818;9.244;2023-03-30T18:37:59;13.70;99.90
2447;DHT22;26430;48.818;9.244;2023-03-30T18:42:54;13.70;99.90
2447;DHT22;26430;48.818;9.244;2023-03-30T18:45:29;13.40;99.90